sensor_id;sensor_type;location;lat;lon;timestamp;pressure;altitude;pressure_sealevel;temperature;humidity
4022;BME280;2025;48.260;16.432;2023-08-17T00:01:00;100081.78;;;17.82;100.00
4022;BME280;2025;48.260;16.432;2023-08-17T00:03:29;100094.31;;;17.81;100.00
4022;BME280;2025;48.260;16.432;2023-08-17T00:05:56;100094.47;;;17.73;100.00
4022;BME280;2025;48.260;16.432;2023-08-17T00:08:23;100092.66;;;17.60;100.00
4022;BME280;2025;48.260;16.432;2023-08-17T00:10:50;100082.63;;;17.56;100.00
4022;BME280;2025;48.260;16.432;2023-08-17T00:13:16;100090.81;;;17.54;100.00
4022;BME280;2025;48.260;16.432;2023-08-17T00:15:43;100088.16;;;17.47;100.00
4022;BME280;2025;48.260;16.432;2023-08-17T00:18:11;100090.81;;;17.34;100.00
4022;BME280;2025;48.260;16.432;2023-08-17T00:20:39;100078.16;;;17.30;100.00
4022;BME280;2025;48.260;16.432;2023-08-17T00:23:06;100082.63;;;17.29;100.00
4022;BME280;2025;48.260;16.432;2023-08-17T00:25:33;100086.09;;;17.49;100.00
4022;BME280;2025;48.260;16.432;2023-08-17T00:28:00;100088.78;;;17.56;100.00
4022;BME280;2025;48.260;16.432;2023-08-17T00:30:27;100084.88;;;17.39;100.00
4022;BME280;2025;48.260;16.432;2023-08-17T00:32:54;100085.91;;;17.31;100.00
4022;BME280;2025;48.260;16.432;2023-08-17T00:35:21;100091.22;;;17.24;100.00
4022;BME280;2025;48.260;16.432;2023-08-17T00:37:49;100090.00;;;17.27;100.00
4022;BME280;2025;48.260;16.432;2023-08-17T00:40:16;100098.41;;;17.24;100.00
4022;BME280;2025;48.260;16.432;2023-08-17T00:42:43;100093.69;;;17.19;100.00
4022;BME280;2025;48.260;16.432;2023-08-17T00:45:10;100098.41;;;17.17;100.00
4022;BME280;2025;48.260;16.432;2023-08-17T00:47:37;100100.03;;;17.12;100.00
4022;BME280;2025;48.260;16.432;2023-08-17T00:50:06;100096.16;;;17.08;100.00
4022;BME280;2025;48.260;16.432;2023-08-17T00:52:33;100092.66;;;17.07;100.00
4022;BME280;2025;48.260;16.432;2023-08-17T00:55:02;100103.53;;;17.12;100.00
4022;BME280;2025;48.260;16.432;2023-08-17T00:57:31;100113.97;;;17.34;100.00
4022;BME280;2025;48.260;16.432;2023-08-17T00:59:58;100111.72;;;17.37;100.00
4022;BME280;2025;48.260;16.432;2023-08-17T01:02:25;100111.31;;;17.34;100.00
4022;BME280;2025;48.260;16.432;2023-08-17T01:04:53;100107.44;;;17.23;100.00
4022;BME280;2025;48.260;16.432;2023-08-17T01:07:21;100108.66;;;17.20;100.00
4022;BME280;2025;48.260;16.432;2023-08-17T01:09:48;100102.47;;;17.13;100.00
4022;BME280;2025;48.260;16.432;2023-08-17T01:12:24;100101.06;;;17.24;100.00
4022;BME280;2025;48.260;16.432;2023-08-17T01:15:00;100100.25;;;17.17;100.00
4022;BME280;2025;48.260;16.432;2023-08-17T01:17:33;100099.22;;;17.04;100.00
4022;BME280;2025;48.260;16.432;2023-08-17T01:20:04;100091.22;;;16.98;100.00
4022;BME280;2025;48.260;16.432;2023-08-17T01:22:32;100092.66;;;17.07;100.00
4022;BME280;2025;48.260;16.432;2023-08-17T01:25:03;100094.31;;;17.15;100.00
4022;BME280;2025;48.260;16.432;2023-08-17T01:27:38;100097.97;;;17.00;100.00
4022;BME280;2025;48.260;16.432;2023-08-17T01:30:07;100092.03;;;16.92;100.00
4022;BME280;2025;48.260;16.432;2023-08-17T01:32:37;100101.03;;;16.91;100.00
4022;BME280;2025;48.260;16.432;2023-08-17T01:35:11;100095.50;;;16.92;100.00
4022;BME280;2025;48.260;16.432;2023-08-17T01:37:42;100090.56;;;16.82;100.00
4022;BME280;2025;48.260;16.432;2023-08-17T01:40:12;100089.34;;;16.78;100.00
4022;BME280;2025;48.260;16.432;2023-08-17T01:42:41;100087.53;;;16.85;100.00
4022;BME280;2025;48.260;16.432;2023-08-17T01:45:09;100102.09;;;17.10;100.00
4022;BME280;2025;48.260;16.432;2023-08-17T01:47:37;100101.06;;;17.11;100.00
4022;BME280;2025;48.260;16.432;2023-08-17T01:50:05;100100.03;;;17.05;100.00
4022;BME280;2025;48.260;16.432;2023-08-17T01:52:32;100098.56;;;16.89;100.00
4022;BME280;2025;48.260;16.432;2023-08-17T01:54:59;100092.00;;;16.85;100.00
4022;BME280;2025;48.260;16.432;2023-08-17T01:57:27;100084.00;;;16.78;100.00
4022;BME280;2025;48.260;16.432;2023-08-17T01:59:54;100090.34;;;16.77;100.00
4022;BME280;2025;48.260;16.432;2023-08-17T02:02:21;100091.38;;;16.76;100.00
4022;BME280;2025;48.260;16.432;2023-08-17T02:04:48;100090.75;;;16.74;100.00
4022;BME280;2025;48.260;16.432;2023-08-17T02:07:15;100099.09;;;16.71;100.00
4022;BME280;2025;48.260;16.432;2023-08-17T02:09:42;100094.81;;;16.70;100.00
4022;BME280;2025;48.260;16.432;2023-08-17T02:12:09;100099.94;;;16.72;100.00
4022;BME280;2025;48.260;16.432;2023-08-17T02:14:37;100096.44;;;16.71;100.00
4022;BME280;2025;48.260;16.432;2023-08-17T02:17:04;100084.38;;;16.69;100.00
4022;BME280;2025;48.260;16.432;2023-08-17T02:19:32;100093.22;;;16.82;100.00
4022;BME280;2025;48.260;16.432;2023-08-17T02:21:59;100093.81;;;16.78;100.00
4022;BME280;2025;48.260;16.432;2023-08-17T02:24:26;100079.66;;;16.64;100.00
4022;BME280;2025;48.260;16.432;2023-08-17T02:26:53;100061.25;;;16.62;100.00
4022;BME280;2025;48.260;16.432;2023-08-17T02:29:20;100065.97;;;16.67;100.00
4022;BME280;2025;48.260;16.432;2023-08-17T02:31:47;100069.44;;;16.61;100.00
4022;BME280;2025;48.260;16.432;2023-08-17T02:34:14;100071.69;;;16.57;100.00
4022;BME280;2025;48.260;16.432;2023-08-17T02:36:41;100082.41;;;16.84;100.00
4022;BME280;2025;48.260;16.432;2023-08-17T02:39:08;100086.91;;;17.03;100.00
4022;BME280;2025;48.260;16.432;2023-08-17T02:41:35;100092.03;;;16.92;100.00
4022;BME280;2025;48.260;16.432;2023-08-17T02:44:02;100090.53;;;16.76;100.00
4022;BME280;2025;48.260;16.432;2023-08-17T02:46:29;100095.84;;;16.69;100.00
4022;BME280;2025;48.260;16.432;2023-08-17T02:48:58;100095.81;;;16.56;100.00
4022;BME280;2025;48.260;16.432;2023-08-17T02:51:25;100097.03;;;16.53;100.00
4022;BME280;2025;48.260;16.432;2023-08-17T02:53:52;100107.03;;;16.51;100.00
4022;BME280;2025;48.260;16.432;2023-08-17T02:56:18;100100.31;;;16.55;100.00
4022;BME280;2025;48.260;16.432;2023-08-17T02:58:45;100095.81;;;16.56;100.00
4022;BME280;2025;48.260;16.432;2023-08-17T03:01:13;100087.00;;;16.49;100.00
4022;BME280;2025;48.260;16.432;2023-08-17T03:03:39;100091.06;;;16.44;100.00
4022;BME280;2025;48.260;16.432;2023-08-17T03:06:08;100088.59;;;16.36;100.00
4022;BME280;2025;48.260;16.432;2023-08-17T03:08:35;100083.03;;;16.31;100.00
4022;BME280;2025;48.260;16.432;2023-08-17T03:11:02;100083.66;;;16.33;100.00
4022;BME280;2025;48.260;16.432;2023-08-17T03:13:29;100081.00;;;16.33;100.00
4022;BME280;2025;48.260;16.432;2023-08-17T03:15:56;100079.59;;;16.37;100.00
4022;BME280;2025;48.260;16.432;2023-08-17T03:18:23;100087.56;;;16.37;100.00
4022;BME280;2025;48.260;16.432;2023-08-17T03:20:49;100085.94;;;16.36;100.00
4022;BME280;2025;48.260;16.432;2023-08-17T03:23:18;100089.56;;;16.29;100.00
4022;BME280;2025;48.260;16.432;2023-08-17T03:25:45;100082.63;;;16.28;100.00
4022;BME280;2025;48.260;16.432;2023-08-17T03:28:12;100092.22;;;16.29;100.00
4022;BME280;2025;48.260;16.432;2023-08-17T03:30:39;100083.44;;;16.28;100.00
4022;BME280;2025;48.260;16.432;2023-08-17T03:33:06;100094.13;;;16.41;100.00
4022;BME280;2025;48.260;16.432;2023-08-17T03:35:33;100089.81;;;16.40;100.00
4022;BME280;2025;48.260;16.432;2023-08-17T03:38:00;100085.50;;;16.33;100.00
4022;BME280;2025;48.260;16.432;2023-08-17T03:40:28;100083.63;;;16.27;100.00
4022;BME280;2025;48.260;16.432;2023-08-17T03:42:55;100082.59;;;16.21;100.00
4022;BME280;2025;48.260;16.432;2023-08-17T03:45:22;100086.66;;;16.17;100.00
4022;BME280;2025;48.260;16.432;2023-08-17T03:47:49;100093.81;;;16.16;100.00
4022;BME280;2025;48.260;16.432;2023-08-17T03:50:16;100091.38;;;16.21;100.00
4022;BME280;2025;48.260;16.432;2023-08-17T03:52:43;100088.13;;;16.26;100.00
4022;BME280;2025;48.260;16.432;2023-08-17T03:55:10;100085.66;;;16.25;100.00
4022;BME280;2025;48.260;16.432;2023-08-17T03:57:38;100086.06;;;16.21;100.00
4022;BME280;2025;48.260;16.432;2023-08-17T04:00:06;100089.75;;;16.20;100.00
4022;BME280;2025;48.260;16.432;2023-08-17T04:02:35;100092.41;;;16.20;100.00
4022;BME280;2025;48.260;16.432;2023-08-17T04:05:03;100091.56;;;16.20;100.00
4022;BME280;2025;48.260;16.432;2023-08-17T04:07:30;100094.84;;;16.22;100.00
4022;BME280;2025;48.260;16.432;2023-08-17T04:09:56;100098.94;;;16.25;100.00
4022;BME280;2025;48.260;16.432;2023-08-17T04:12:23;100092.44;;;16.27;100.00
4022;BME280;2025;48.260;16.432;2023-08-17T04:14:52;100095.28;;;16.26;100.00
4022;BME280;2025;48.260;16.432;2023-08-17T04:17:19;100099.78;;;16.25;100.00
4022;BME280;2025;48.260;16.432;2023-08-17T04:19:46;100099.78;;;16.25;100.00
4022;BME280;2025;48.260;16.432;2023-08-17T04:22:13;100104.88;;;16.27;100.00
4022;BME280;2025;48.260;16.432;2023-08-17T04:24:40;100102.03;;;16.28;100.00
4022;BME280;2025;48.260;16.432;2023-08-17T04:27:07;100105.94;;;16.32;100.00
4022;BME280;2025;48.260;16.432;2023-08-17T04:29:34;100103.06;;;16.34;100.00
4022;BME280;2025;48.260;16.432;2023-08-17T04:32:03;100113.53;;;16.35;100.00
4022;BME280;2025;48.260;16.432;2023-08-17T04:34:30;100117.84;;;16.36;100.00
4022;BME280;2025;48.260;16.432;2023-08-17T04:36:57;100121.94;;;16.39;100.00
4022;BME280;2025;48.260;16.432;2023-08-17T04:39:24;100125.00;;;16.42;100.00
4022;BME280;2025;48.260;16.432;2023-08-17T04:41:51;100130.31;;;16.42;100.00
4022;BME280;2025;48.260;16.432;2023-08-17T04:44:18;100123.56;;;16.40;100.00
4022;BME280;2025;48.260;16.432;2023-08-17T04:46:44;100120.72;;;16.41;100.00
4022;BME280;2025;48.260;16.432;2023-08-17T04:49:13;100123.78;;;16.45;100.00
4022;BME280;2025;48.260;16.432;2023-08-17T04:51:40;100119.31;;;16.52;100.00
4022;BME280;2025;48.260;16.432;2023-08-17T04:54:07;100106.69;;;16.74;100.00
4022;BME280;2025;48.260;16.432;2023-08-17T04:56:34;100109.03;;;16.97;100.00
4022;BME280;2025;48.260;16.432;2023-08-17T04:59:01;100115.59;;;17.08;100.00
4022;BME280;2025;48.260;16.432;2023-08-17T05:01:27;100113.34;;;17.05;100.00
4022;BME280;2025;48.260;16.432;2023-08-17T05:03:54;100116.44;;;17.09;100.00
4022;BME280;2025;48.260;16.432;2023-08-17T05:06:23;100111.50;;;17.12;100.00
4022;BME280;2025;48.260;16.432;2023-08-17T05:08:50;100117.84;;;17.18;100.00
4022;BME280;2025;48.260;16.432;2023-08-17T05:11:17;100122.97;;;17.26;100.00
4022;BME280;2025;48.260;16.432;2023-08-17T05:13:44;100122.38;;;17.51;100.00
4022;BME280;2025;48.260;16.432;2023-08-17T05:16:10;100123.59;;;17.68;100.00
4022;BME280;2025;48.260;16.432;2023-08-17T05:18:37;100125.63;;;17.73;100.00
4022;BME280;2025;48.260;16.432;2023-08-17T05:21:04;100128.69;;;17.89;100.00
4022;BME280;2025;48.260;16.432;2023-08-17T05:23:33;100139.53;;;18.01;100.00
4022;BME280;2025;48.260;16.432;2023-08-17T05:26:00;100127.44;;;17.99;100.00
4022;BME280;2025;48.260;16.432;2023-08-17T05:28:27;100142.00;;;18.03;100.00
4022;BME280;2025;48.260;16.432;2023-08-17T05:30:54;100137.88;;;18.14;100.00
4022;BME280;2025;48.260;16.432;2023-08-17T05:33:21;100120.03;;;18.21;100.00
4022;BME280;2025;48.260;16.432;2023-08-17T05:35:53;100121.81;;;18.33;100.00
4022;BME280;2025;48.260;16.432;2023-08-17T05:38:20;100129.34;;;18.43;100.00
4022;BME280;2025;48.260;16.432;2023-08-17T05:40:54;100124.00;;;18.50;100.00
4022;BME280;2025;48.260;16.432;2023-08-17T05:43:21;100133.81;;;18.56;100.00
4022;BME280;2025;48.260;16.432;2023-08-17T05:45:48;100142.19;;;18.66;100.00
4022;BME280;2025;48.260;16.432;2023-08-17T05:48:15;100139.69;;;18.78;100.00
4022;BME280;2025;48.260;16.432;2023-08-17T05:50:42;100141.50;;;18.84;100.00
4022;BME280;2025;48.260;16.432;2023-08-17T05:53:09;100138.44;;;18.81;100.00
4022;BME280;2025;48.260;16.432;2023-08-17T05:55:36;100147.47;;;18.73;100.00
4022;BME280;2025;48.260;16.432;2023-08-17T05:58:04;100147.69;;;18.71;100.00
4022;BME280;2025;48.260;16.432;2023-08-17T06:00:31;100144.22;;;18.71;100.00
4022;BME280;2025;48.260;16.432;2023-08-17T06:02:58;100138.25;;;18.75;100.00
4022;BME280;2025;48.260;16.432;2023-08-17T06:05:28;100139.69;;;18.78;100.00
4022;BME280;2025;48.260;16.432;2023-08-17T06:07:55;100137.38;;;18.88;100.00
4022;BME280;2025;48.260;16.432;2023-08-17T06:10:23;100141.78;;;19.08;98.88
4022;BME280;2025;48.260;16.432;2023-08-17T06:12:51;100144.38;;;19.21;98.85
4022;BME280;2025;48.260;16.432;2023-08-17T06:15:20;100137.78;;;19.24;97.68
4022;BME280;2025;48.260;16.432;2023-08-17T06:17:47;100137.88;;;19.35;97.54
4022;BME280;2025;48.260;16.432;2023-08-17T06:20:15;100135.28;;;19.54;95.37
4022;BME280;2025;48.260;16.432;2023-08-17T06:22:42;100133.81;;;19.58;93.85
4022;BME280;2025;48.260;16.432;2023-08-17T06:25:09;100131.72;;;19.60;92.68
4022;BME280;2025;48.260;16.432;2023-08-17T06:27:37;100133.31;;;19.68;93.25
4022;BME280;2025;48.260;16.432;2023-08-17T06:30:04;100120.00;;;19.86;93.18
4022;BME280;2025;48.260;16.432;2023-08-17T06:32:33;100130.84;;;19.91;91.53
4022;BME280;2025;48.260;16.432;2023-08-17T06:35:00;100124.03;;;19.95;91.35
4022;BME280;2025;48.260;16.432;2023-08-17T06:37:27;100121.09;;;19.97;92.33
4022;BME280;2025;48.260;16.432;2023-08-17T06:39:54;100122.91;;;20.03;92.09
4022;BME280;2025;48.260;16.432;2023-08-17T06:42:21;100122.91;;;20.21;91.83
4022;BME280;2025;48.260;16.432;2023-08-17T06:44:48;100135.81;;;20.43;91.34
4022;BME280;2025;48.260;16.432;2023-08-17T06:47:15;100133.59;;;20.58;88.89
4022;BME280;2025;48.260;16.432;2023-08-17T06:49:43;100139.22;;;20.69;88.08
4022;BME280;2025;48.260;16.432;2023-08-17T06:52:10;100134.50;;;20.82;87.05
4022;BME280;2025;48.260;16.432;2023-08-17T06:54:38;100139.91;;;20.94;85.18
4022;BME280;2025;48.260;16.432;2023-08-17T06:57:05;100138.66;;;20.78;86.41
4022;BME280;2025;48.260;16.432;2023-08-17T06:59:32;100140.00;;;20.88;86.03
4022;BME280;2025;48.260;16.432;2023-08-17T07:01:59;100134.50;;;20.82;89.03
4022;BME280;2025;48.260;16.432;2023-08-17T07:04:26;100134.28;;;20.84;89.85
4022;BME280;2025;48.260;16.432;2023-08-17T07:06:55;100142.13;;;20.97;89.02
4022;BME280;2025;48.260;16.432;2023-08-17T07:09:22;100137.84;;;21.08;89.43
4022;BME280;2025;48.260;16.432;2023-08-17T07:11:49;100141.72;;;21.24;86.30
4022;BME280;2025;48.260;16.432;2023-08-17T07:14:16;100145.81;;;21.38;85.74
4022;BME280;2025;48.260;16.432;2023-08-17T07:16:43;100152.50;;;21.48;83.48
4022;BME280;2025;48.260;16.432;2023-08-17T07:19:10;100151.56;;;21.54;83.54
4022;BME280;2025;48.260;16.432;2023-08-17T07:21:38;100148.94;;;21.65;83.26
4022;BME280;2025;48.260;16.432;2023-08-17T07:24:14;100153.22;;;21.78;85.39
4022;BME280;2025;48.260;16.432;2023-08-17T07:26:42;100156.38;;;21.99;83.51
4022;BME280;2025;48.260;16.432;2023-08-17T07:29:09;100149.69;;;22.13;83.06
4022;BME280;2025;48.260;16.432;2023-08-17T07:31:36;100150.63;;;22.30;81.53
4022;BME280;2025;48.260;16.432;2023-08-17T07:34:04;100152.03;;;22.33;75.99
4022;BME280;2025;48.260;16.432;2023-08-17T07:36:31;100152.72;;;22.17;77.10
4022;BME280;2025;48.260;16.432;2023-08-17T07:38:58;100141.97;;;22.17;76.75
4022;BME280;2025;48.260;16.432;2023-08-17T07:41:26;100146.19;;;22.36;77.81
4022;BME280;2025;48.260;16.432;2023-08-17T07:44:04;100148.38;;;22.39;78.82
4022;BME280;2025;48.260;16.432;2023-08-17T07:46:38;100147.94;;;22.30;77.30
4022;BME280;2025;48.260;16.432;2023-08-17T07:49:10;100149.34;;;22.21;76.22
4022;BME280;2025;48.260;16.432;2023-08-17T07:51:40;100150.88;;;22.17;77.29
4022;BME280;2025;48.260;16.432;2023-08-17T07:54:09;100156.13;;;22.24;77.67
4022;BME280;2025;48.260;16.432;2023-08-17T07:57:59;100154.94;;;22.32;79.63
4022;BME280;2025;48.260;16.432;2023-08-17T07:59:57;100147.44;;;22.45;76.71
4022;BME280;2025;48.260;16.432;2023-08-17T08:02:23;100150.59;;;22.54;78.34
4022;BME280;2025;48.260;16.432;2023-08-17T08:04:51;100154.25;;;22.65;76.35
4022;BME280;2025;48.260;16.432;2023-08-17T08:07:22;100150.75;;;22.64;79.48
4022;BME280;2025;48.260;16.432;2023-08-17T08:09:52;100139.41;;;22.74;76.82
4022;BME280;2025;48.260;16.432;2023-08-17T08:12:20;100141.38;;;22.79;78.50
4022;BME280;2025;48.260;16.432;2023-08-17T08:14:47;100145.28;;;22.88;75.01
4022;BME280;2025;48.260;16.432;2023-08-17T08:17:15;100141.81;;;22.87;72.58
4022;BME280;2025;48.260;16.432;2023-08-17T08:19:42;100137.88;;;22.78;72.79
4022;BME280;2025;48.260;16.432;2023-08-17T08:22:08;100142.84;;;22.86;73.58
4022;BME280;2025;48.260;16.432;2023-08-17T08:24:35;100139.41;;;22.74;72.80
4022;BME280;2025;48.260;16.432;2023-08-17T08:27:03;100142.44;;;22.78;72.35
4022;BME280;2025;48.260;16.432;2023-08-17T08:29:31;100146.44;;;22.92;72.21
4022;BME280;2025;48.260;16.432;2023-08-17T08:32:01;100153.78;;;22.97;72.76
4022;BME280;2025;48.260;16.432;2023-08-17T08:34:31;100152.84;;;23.03;72.76
4022;BME280;2025;48.260;16.432;2023-08-17T08:37:01;100147.00;;;23.06;72.17
4022;BME280;2025;48.260;16.432;2023-08-17T08:39:28;100151.06;;;23.08;72.48
4022;BME280;2025;48.260;16.432;2023-08-17T08:41:55;100150.66;;;23.17;72.89
4022;BME280;2025;48.260;16.432;2023-08-17T08:44:22;100140.47;;;23.19;72.20
4022;BME280;2025;48.260;16.432;2023-08-17T08:46:54;100148.16;;;23.27;72.03
4022;BME280;2025;48.260;16.432;2023-08-17T08:49:23;100142.72;;;23.22;71.53
4022;BME280;2025;48.260;16.432;2023-08-17T08:51:51;100139.75;;;23.23;70.48
4022;BME280;2025;48.260;16.432;2023-08-17T08:54:25;100134.31;;;23.18;72.48
4022;BME280;2025;48.260;16.432;2023-08-17T08:56:57;100139.44;;;23.20;71.05
4022;BME280;2025;48.260;16.432;2023-08-17T08:59:27;100132.34;;;23.30;70.65
4022;BME280;2025;48.260;16.432;2023-08-17T09:01:57;100134.72;;;23.27;70.15
4022;BME280;2025;48.260;16.432;2023-08-17T09:04:25;100140.75;;;23.34;69.68
4022;BME280;2025;48.260;16.432;2023-08-17T09:06:53;100139.28;;;23.43;71.14
4022;BME280;2025;48.260;16.432;2023-08-17T09:09:20;100139.22;;;23.38;71.08
4022;BME280;2025;48.260;16.432;2023-08-17T09:11:48;100145.78;;;23.64;69.94
4022;BME280;2025;48.260;16.432;2023-08-17T09:14:15;100140.19;;;23.83;69.09
4022;BME280;2025;48.260;16.432;2023-08-17T09:16:42;100142.53;;;23.79;70.54
4022;BME280;2025;48.260;16.432;2023-08-17T09:19:10;100139.16;;;23.89;68.09
4022;BME280;2025;48.260;16.432;2023-08-17T09:21:37;100127.94;;;23.75;67.97
4022;BME280;2025;48.260;16.432;2023-08-17T09:24:06;100138.13;;;23.90;68.25
4022;BME280;2025;48.260;16.432;2023-08-17T09:26:33;100140.31;;;23.93;68.56
4022;BME280;2025;48.260;16.432;2023-08-17T09:29:16;100126.69;;;24.00;68.90
4022;BME280;2025;48.260;16.432;2023-08-17T09:31:43;100130.56;;;24.09;68.92
4022;BME280;2025;48.260;16.432;2023-08-17T09:34:14;100121.38;;;24.05;68.42
4022;BME280;2025;48.260;16.432;2023-08-17T09:36:41;100123.53;;;24.08;66.89
4022;BME280;2025;48.260;16.432;2023-08-17T09:39:08;100117.63;;;24.06;66.61
4022;BME280;2025;48.260;16.432;2023-08-17T09:41:38;100119.44;;;24.22;67.78
4022;BME280;2025;48.260;16.432;2023-08-17T09:44:06;100114.69;;;24.51;66.11
4022;BME280;2025;48.260;16.432;2023-08-17T09:46:33;100118.97;;;24.74;65.51
4022;BME280;2025;48.260;16.432;2023-08-17T09:49:02;100110.28;;;24.94;62.77
4022;BME280;2025;48.260;16.432;2023-08-17T09:51:32;100119.16;;;24.95;62.62
4022;BME280;2025;48.260;16.432;2023-08-17T09:53:59;100116.00;;;25.03;65.83
4022;BME280;2025;48.260;16.432;2023-08-17T09:56:26;100116.28;;;25.01;64.52
4022;BME280;2025;48.260;16.432;2023-08-17T09:58:54;100111.97;;;25.33;61.91
4022;BME280;2025;48.260;16.432;2023-08-17T10:01:22;100103.34;;;25.36;63.21
4022;BME280;2025;48.260;16.432;2023-08-17T10:03:52;100103.44;;;25.46;60.42
4022;BME280;2025;48.260;16.432;2023-08-17T10:06:24;100114.22;;;25.46;62.26
4022;BME280;2025;48.260;16.432;2023-08-17T10:08:52;100100.81;;;25.61;60.80
4022;BME280;2025;48.260;16.432;2023-08-17T10:11:23;100096.47;;;25.50;59.15
4022;BME280;2025;48.260;16.432;2023-08-17T10:13:52;100096.75;;;25.54;58.98
4022;BME280;2025;48.260;16.432;2023-08-17T10:16:26;100097.09;;;25.68;58.33
4022;BME280;2025;48.260;16.432;2023-08-17T10:18:54;100104.41;;;25.72;59.11
4022;BME280;2025;48.260;16.432;2023-08-17T10:21:26;100099.06;;;25.82;57.51
4022;BME280;2025;48.260;16.432;2023-08-17T10:23:55;100098.00;;;25.83;60.55
4022;BME280;2025;48.260;16.432;2023-08-17T10:26:24;100099.72;;;25.95;56.46
4022;BME280;2025;48.260;16.432;2023-08-17T10:28:51;100085.47;;;26.15;57.23
4022;BME280;2025;48.260;16.432;2023-08-17T10:31:20;100074.44;;;26.21;56.35
4022;BME280;2025;48.260;16.432;2023-08-17T10:33:47;100074.78;;;26.51;57.17
4022;BME280;2025;48.260;16.432;2023-08-17T10:36:14;100075.94;;;26.80;56.01
4022;BME280;2025;48.260;16.432;2023-08-17T10:38:42;100071.34;;;27.11;55.49
4022;BME280;2025;48.260;16.432;2023-08-17T10:41:11;100065.69;;;27.28;55.05
4022;BME280;2025;48.260;16.432;2023-08-17T10:43:54;100061.00;;;27.60;54.00
4022;BME280;2025;48.260;16.432;2023-08-17T10:46:21;100062.41;;;27.52;53.51
4022;BME280;2025;48.260;16.432;2023-08-17T10:48:48;100057.84;;;27.37;54.31
4022;BME280;2025;48.260;16.432;2023-08-17T10:51:15;100058.91;;;27.31;59.08
4022;BME280;2025;48.260;16.432;2023-08-17T10:53:43;100055.13;;;27.37;54.24
4022;BME280;2025;48.260;16.432;2023-08-17T10:56:13;100059.16;;;27.50;53.07
4022;BME280;2025;48.260;16.432;2023-08-17T10:58:42;100057.00;;;27.47;50.96
4022;BME280;2025;48.260;16.432;2023-08-17T11:01:09;100062.44;;;27.21;51.58
4022;BME280;2025;48.260;16.432;2023-08-17T11:03:37;100054.59;;;26.99;53.88
4022;BME280;2025;48.260;16.432;2023-08-17T11:06:16;100055.16;;;26.86;53.39
4022;BME280;2025;48.260;16.432;2023-08-17T11:08:54;100052.69;;;26.95;53.82
4022;BME280;2025;48.260;16.432;2023-08-17T11:11:23;100052.16;;;27.03;53.04
4022;BME280;2025;48.260;16.432;2023-08-17T11:13:52;100049.72;;;26.96;52.17
4022;BME280;2025;48.260;16.432;2023-08-17T11:16:19;100051.06;;;26.73;53.14
4022;BME280;2025;48.260;16.432;2023-08-17T11:18:47;100051.09;;;27.09;53.05
4022;BME280;2025;48.260;16.432;2023-08-17T11:21:15;100056.75;;;27.33;52.07
4022;BME280;2025;48.260;16.432;2023-08-17T11:23:43;100052.38;;;27.63;50.70
4022;BME280;2025;48.260;16.432;2023-08-17T11:26:12;100048.81;;;27.72;55.54
4022;BME280;2025;48.260;16.432;2023-08-17T11:28:43;100048.38;;;28.15;49.44
4022;BME280;2025;48.260;16.432;2023-08-17T11:31:13;100043.06;;;28.49;47.08
4022;BME280;2025;48.260;16.432;2023-08-17T11:33:41;100033.59;;;28.86;46.41
4022;BME280;2025;48.260;16.432;2023-08-17T11:36:08;100035.25;;;29.16;44.60
4022;BME280;2025;48.260;16.432;2023-08-17T11:38:37;100042.22;;;29.23;43.49
4022;BME280;2025;48.260;16.432;2023-08-17T11:41:05;100039.16;;;29.00;43.50
4022;BME280;2025;48.260;16.432;2023-08-17T11:43:33;100029.47;;;29.23;44.21
4022;BME280;2025;48.260;16.432;2023-08-17T11:46:02;100029.78;;;29.70;44.53
4022;BME280;2025;48.260;16.432;2023-08-17T11:48:30;100029.72;;;29.99;42.20
4022;BME280;2025;48.260;16.432;2023-08-17T11:50:57;100027.94;;;29.89;44.01
4022;BME280;2025;48.260;16.432;2023-08-17T11:53:24;100026.72;;;29.52;45.87
4022;BME280;2025;48.260;16.432;2023-08-17T11:55:51;100030.28;;;29.77;42.90
4022;BME280;2025;48.260;16.432;2023-08-17T11:58:18;100017.09;;;30.08;42.82
4022;BME280;2025;48.260;16.432;2023-08-17T12:00:45;100020.84;;;30.12;43.22
4022;BME280;2025;48.260;16.432;2023-08-17T12:03:16;100030.13;;;29.63;40.67
4022;BME280;2025;48.260;16.432;2023-08-17T12:05:44;100019.59;;;29.32;42.18
4022;BME280;2025;48.260;16.432;2023-08-17T12:08:15;100026.16;;;28.97;42.48
4022;BME280;2025;48.260;16.432;2023-08-17T12:10:44;100018.50;;;28.75;43.33
4022;BME280;2025;48.260;16.432;2023-08-17T12:13:11;100015.50;;;28.32;43.48
4022;BME280;2025;48.260;16.432;2023-08-17T12:15:40;100010.72;;;28.24;43.95
4022;BME280;2025;48.260;16.432;2023-08-17T12:18:07;100012.81;;;28.37;42.81
4022;BME280;2025;48.260;16.432;2023-08-17T12:20:35;100002.66;;;28.58;44.27
4022;BME280;2025;48.260;16.432;2023-08-17T12:23:02;100007.81;;;28.54;43.03
4022;BME280;2025;48.260;16.432;2023-08-17T12:25:29;100008.72;;;28.34;45.45
4022;BME280;2025;48.260;16.432;2023-08-17T12:27:58;99998.34;;;28.52;46.38
4022;BME280;2025;48.260;16.432;2023-08-17T12:30:27;99994.44;;;29.27;43.33
4022;BME280;2025;48.260;16.432;2023-08-17T12:32:55;99992.69;;;29.60;41.15
4022;BME280;2025;48.260;16.432;2023-08-17T12:35:22;99985.22;;;30.14;41.33
4022;BME280;2025;48.260;16.432;2023-08-17T12:37:51;99968.00;;;30.75;42.17
4022;BME280;2025;48.260;16.432;2023-08-17T12:40:19;99973.13;;;30.77;42.57
4022;BME280;2025;48.260;16.432;2023-08-17T12:42:46;99966.78;;;31.00;42.36
4022;BME280;2025;48.260;16.432;2023-08-17T12:45:14;99959.47;;;30.30;40.21
4022;BME280;2025;48.260;16.432;2023-08-17T12:47:41;99965.94;;;30.15;42.17
4022;BME280;2025;48.260;16.432;2023-08-17T12:50:08;99957.88;;;29.91;42.71
4022;BME280;2025;48.260;16.432;2023-08-17T12:52:34;99955.38;;;29.95;43.61
4022;BME280;2025;48.260;16.432;2023-08-17T12:55:03;99950.88;;;29.85;42.91
4022;BME280;2025;48.260;16.432;2023-08-17T12:57:30;99953.31;;;29.87;44.21
4022;BME280;2025;48.260;16.432;2023-08-17T12:59:57;99949.50;;;29.69;41.53